createdAt,value
2022-12-02T00:00:29.687Z,47.76
2022-12-02T00:03:23.366Z,48.15
2022-12-02T00:06:15.135Z,48.08
2022-12-02T00:09:14.242Z,48.24
2022-12-02T00:12:14.834Z,47.88
2022-12-02T00:15:14.801Z,47.73
2022-12-02T00:18:03.435Z,47.78
2022-12-02T00:20:53.438Z,47.96
2022-12-02T00:23:42.066Z,48.27
2022-12-02T00:26:30.672Z,47.96
2022-12-02T00:29:19.335Z,47.63
2022-12-02T00:32:08.671Z,48.24
2022-12-02T00:34:57.307Z,48.01
2022-12-02T00:37:47.433Z,48.26
2022-12-02T00:40:36.001Z,48.00
2022-12-02T00:43:42.364Z,47.73
2022-12-02T00:46:34.871Z,48.03
2022-12-02T00:49:23.586Z,47.84
2022-12-02T00:52:12.169Z,48.00
2022-12-02T00:55:02.164Z,48.25
2022-12-02T00:57:50.813Z,47.88
2022-12-02T01:00:39.479Z,47.79
2022-12-02T01:03:28.161Z,47.87
2022-12-02T01:06:17.186Z,48.14
2022-12-02T01:09:05.899Z,47.84
2022-12-02T01:11:55.885Z,48.05
2022-12-02T01:14:44.513Z,48.00
2022-12-02T01:17:33.198Z,47.85
2022-12-02T01:20:21.850Z,47.89
2022-12-02T01:23:10.606Z,47.88
2022-12-02T01:25:59.383Z,48.20
2022-12-02T01:28:49.448Z,47.77
2022-12-02T01:31:38.103Z,47.86
2022-12-02T01:34:26.646Z,48.22
2022-12-02T01:37:15.282Z,48.19
2022-12-02T01:40:03.920Z,48.18
2022-12-02T01:42:52.608Z,48.00
2022-12-02T01:45:45.999Z,48.27
2022-12-02T01:48:36.689Z,47.89
2022-12-02T01:51:25.361Z,48.12
2022-12-02T01:54:14.010Z,47.78
2022-12-02T01:57:02.977Z,47.89
2022-12-02T01:59:51.652Z,47.85
2022-12-02T02:02:42.682Z,47.69
2022-12-02T02:05:32.649Z,48.21
2022-12-02T02:08:21.432Z,48.19
2022-12-02T02:11:10.131Z,48.12
2022-12-02T02:13:58.964Z,48.36
2022-12-02T02:16:47.613Z,47.85
2022-12-02T02:19:37.959Z,48.11
2022-12-02T02:22:28.307Z,48.06
2022-12-02T02:25:20.736Z,47.88
2022-12-02T02:28:10.359Z,47.68
2022-12-02T02:30:59.710Z,48.17
2022-12-02T02:33:49.233Z,47.86
2022-12-02T02:36:37.883Z,48.29
2022-12-02T02:39:26.906Z,47.80
2022-12-02T02:42:16.891Z,47.71
2022-12-02T02:45:06.722Z,48.26
2022-12-02T02:47:56.227Z,48.00
2022-12-02T02:50:46.547Z,47.98
2022-12-02T02:53:35.232Z,48.21
2022-12-02T02:56:23.962Z,48.27
2022-12-02T02:59:16.059Z,48.15
2022-12-02T03:02:10.069Z,48.15
2022-12-02T03:04:58.790Z,47.95
2022-12-02T03:07:47.867Z,47.98
2022-12-02T03:10:36.664Z,48.32
2022-12-02T03:13:25.395Z,47.93
2022-12-02T03:16:17.497Z,48.18
2022-12-02T03:19:06.359Z,47.92
2022-12-02T03:21:55.063Z,48.04
2022-12-02T03:24:43.915Z,47.96
2022-12-02T03:27:32.771Z,47.78
2022-12-02T03:30:21.651Z,47.99
2022-12-02T03:33:11.840Z,48.32
2022-12-02T03:36:00.479Z,48.33
2022-12-02T03:38:49.252Z,48.15
2022-12-02T03:41:37.989Z,48.00
2022-12-02T03:44:26.653Z,48.35
2022-12-02T03:47:15.402Z,48.41
2022-12-02T03:50:06.186Z,48.18
2022-12-02T03:52:55.542Z,48.25
2022-12-02T03:55:44.259Z,48.05
2022-12-02T04:01:25.729Z,48.29
2022-12-02T04:07:04.182Z,48.19
2022-12-02T04:09:52.766Z,48.14
2022-12-02T04:12:41.388Z,48.10
2022-12-02T04:15:30.080Z,48.09
2022-12-02T04:18:18.869Z,48.32
2022-12-02T04:21:08.124Z,47.95
2022-12-02T04:23:58.214Z,48.08
2022-12-02T04:26:46.892Z,48.34
2022-12-02T04:29:35.482Z,48.00
2022-12-02T04:32:24.102Z,48.24
2022-12-02T04:35:12.639Z,48.21
2022-12-02T04:40:51.115Z,48.10
2022-12-02T04:43:39.723Z,48.17
2022-12-02T04:46:28.424Z,47.96
2022-12-02T04:49:17.783Z,48.14
2022-12-02T04:52:06.628Z,48.38
2022-12-02T04:54:55.214Z,48.08
2022-12-02T04:57:45.188Z,48.06
2022-12-02T05:00:33.733Z,48.31
2022-12-02T05:03:22.427Z,48.08
2022-12-02T05:06:11.006Z,48.00
2022-12-02T05:08:59.651Z,48.30
2022-12-02T05:11:48.339Z,48.20
2022-12-02T05:14:38.338Z,47.81
2022-12-02T05:17:27.060Z,48.08
2022-12-02T05:20:15.886Z,48.37
2022-12-02T05:23:04.620Z,47.97
2022-12-02T05:25:53.267Z,38.26
2022-12-02T05:28:42.003Z,33.71
2022-12-02T05:31:32.054Z,32.47
2022-12-02T05:34:20.807Z,31.47
2022-12-02T05:37:09.474Z,34.15
2022-12-02T05:39:58.132Z,36.06
2022-12-02T05:42:46.728Z,37.14
2022-12-02T05:45:35.352Z,38.30
2022-12-02T05:48:27.550Z,39.10
2022-12-02T05:51:18.378Z,39.78
2022-12-02T05:54:08.186Z,41.13
2022-12-02T05:56:57.995Z,41.12
2022-12-02T05:59:46.620Z,41.69
2022-12-02T06:02:41.026Z,41.77
2022-12-02T06:05:33.590Z,42.19
2022-12-02T06:08:24.002Z,42.52
2022-12-02T06:11:25.993Z,43.10
2022-12-02T06:14:17.682Z,43.04
2022-12-02T06:17:15.713Z,43.24
2022-12-02T06:20:07.604Z,43.23
2022-12-02T06:22:57.671Z,43.50
2022-12-02T06:25:46.729Z,43.89
2022-12-02T06:28:37.135Z,44.13
2022-12-02T06:31:29.050Z,44.22
2022-12-02T06:34:35.838Z,44.38
2022-12-02T06:37:26.393Z,44.54
2022-12-02T06:40:28.718Z,44.83
2022-12-02T06:43:23.050Z,44.49
2022-12-02T06:46:15.151Z,44.48
2022-12-02T06:49:04.077Z,44.65
2022-12-02T06:51:57.344Z,44.99
2022-12-02T06:54:47.173Z,45.13
2022-12-02T06:57:37.188Z,44.77
2022-12-02T07:00:25.788Z,45.30
2022-12-02T07:03:27.501Z,45.36
2022-12-02T07:06:17.578Z,45.27
2022-12-02T07:09:11.087Z,45.37
2022-12-02T07:12:03.424Z,45.64
2022-12-02T07:14:54.753Z,45.38
2022-12-02T07:17:44.497Z,45.57
2022-12-02T07:20:34.481Z,45.80
2022-12-02T07:23:27.535Z,45.90
2022-12-02T07:26:16.154Z,45.86
2022-12-02T07:29:15.274Z,46.14
2022-12-02T07:32:06.099Z,45.78
2022-12-02T07:34:55.150Z,45.95
2022-12-02T07:37:43.801Z,46.09
2022-12-02T07:40:34.159Z,46.10
2022-12-02T07:43:22.804Z,46.11
2022-12-02T07:46:11.492Z,46.37
2022-12-02T07:49:01.531Z,45.87
2022-12-02T07:51:50.277Z,46.24
2022-12-02T07:54:39.124Z,45.84
2022-12-02T07:57:34.453Z,46.18
2022-12-02T08:00:25.272Z,46.48
2022-12-02T08:03:13.845Z,46.32
2022-12-02T08:06:03.823Z,46.02
2022-12-02T08:08:52.395Z,46.14
2022-12-02T08:11:41.033Z,46.70
2022-12-02T08:14:29.674Z,46.58
2022-12-02T08:17:18.337Z,45.95
2022-12-02T08:20:09.251Z,46.35
2022-12-02T08:22:59.228Z,46.02
2022-12-02T08:25:47.953Z,46.43
2022-12-02T08:28:36.658Z,46.15
2022-12-02T08:31:25.540Z,46.26
2022-12-02T08:34:14.216Z,46.14
2022-12-02T08:37:02.820Z,46.21
2022-12-02T08:39:52.932Z,46.40
2022-12-02T08:42:42.200Z,46.63
2022-12-02T08:45:33.231Z,46.33
2022-12-02T08:48:22.020Z,46.36
2022-12-02T08:51:10.616Z,46.55
2022-12-02T08:53:59.233Z,46.48
2022-12-02T08:56:50.579Z,46.70
2022-12-02T08:59:39.211Z,46.41
2022-12-02T09:02:27.870Z,46.49
2022-12-02T09:05:16.832Z,46.78
2022-12-02T09:08:05.773Z,46.64
2022-12-02T09:10:54.739Z,46.82
2022-12-02T09:13:44.764Z,46.83
2022-12-02T09:16:33.371Z,46.82
2022-12-02T09:19:22.183Z,46.33
2022-12-02T09:22:11.184Z,46.28
2022-12-02T09:24:59.879Z,46.75
2022-12-02T09:27:48.507Z,46.90
2022-12-02T09:30:38.568Z,46.59
2022-12-02T09:33:33.548Z,46.42
2022-12-02T09:36:22.535Z,47.07
2022-12-02T09:39:11.264Z,46.77
2022-12-02T09:41:59.882Z,46.62
2022-12-02T09:44:50.508Z,46.79
2022-12-02T09:47:41.605Z,46.90
2022-12-02T09:50:30.250Z,46.76
2022-12-02T09:53:20.533Z,46.84
2022-12-02T09:56:13.839Z,46.50
2022-12-02T09:59:02.491Z,47.03
2022-12-02T10:01:51.483Z,47.05
2022-12-02T10:04:41.544Z,47.05
2022-12-02T10:07:30.395Z,46.49
2022-12-02T10:10:24.110Z,46.52
2022-12-02T10:13:14.800Z,46.42
2022-12-02T10:16:03.849Z,46.61
2022-12-02T10:18:52.581Z,47.00
2022-12-02T10:21:42.590Z,46.91
2022-12-02T10:24:38.801Z,46.75
2022-12-02T10:27:29.366Z,46.90
2022-12-02T10:30:19.424Z,47.02
2022-12-02T10:33:08.850Z,46.48
2022-12-02T10:35:58.072Z,46.84
2022-12-02T10:38:48.042Z,46.79
2022-12-02T10:41:36.725Z,47.05
2022-12-02T10:44:27.820Z,46.65
2022-12-02T10:47:26.205Z,46.86
2022-12-02T10:50:21.517Z,46.67
2022-12-02T10:53:15.825Z,46.69
2022-12-02T10:56:07.269Z,46.83
2022-12-02T10:58:56.834Z,46.93
2022-12-02T11:01:46.350Z,46.96
2022-12-02T11:04:35.051Z,46.98
2022-12-02T11:07:25.144Z,46.95
2022-12-02T11:10:21.391Z,46.76
2022-12-02T11:13:33.472Z,46.85
2022-12-02T11:16:53.036Z,47.13
2022-12-02T11:19:47.856Z,46.96
2022-12-02T11:23:21.110Z,47.21
2022-12-02T11:26:10.873Z,46.79
2022-12-02T11:29:18.573Z,46.90
2022-12-02T11:32:18.289Z,47.10
2022-12-02T11:35:18.597Z,46.77
2022-12-02T11:38:21.420Z,47.08
2022-12-02T11:41:09.979Z,46.69
2022-12-02T11:44:27.501Z,46.67
2022-12-02T11:47:31.372Z,47.00
2022-12-02T11:50:24.515Z,46.70
2022-12-02T11:53:16.339Z,46.73
2022-12-02T11:56:13.047Z,46.97
2022-12-02T11:59:01.902Z,47.25
2022-12-02T12:01:52.216Z,46.75
2022-12-02T12:04:41.504Z,46.68
2022-12-02T12:07:44.169Z,47.14
2022-12-02T12:10:35.689Z,46.81
2022-12-02T12:13:25.389Z,46.73
2022-12-02T12:16:24.443Z,46.80
2022-12-02T12:19:29.790Z,46.82
2022-12-02T12:22:29.157Z,46.69
2022-12-02T12:25:33.629Z,47.07
2022-12-02T12:28:25.770Z,46.96
2022-12-02T12:31:14.432Z,47.16
2022-12-02T12:34:03.175Z,46.87
2022-12-02T12:36:53.178Z,46.91
2022-12-02T12:39:41.840Z,46.87
2022-12-02T12:42:30.396Z,47.23
2022-12-02T12:45:19.130Z,47.11
2022-12-02T12:48:08.164Z,47.31
2022-12-02T12:50:56.749Z,47.06
2022-12-02T12:53:46.759Z,47.14
2022-12-02T12:56:35.353Z,47.07
2022-12-02T12:59:24.054Z,47.29
2022-12-02T13:02:12.798Z,47.10
2022-12-02T13:05:04.210Z,47.20
2022-12-02T13:07:55.549Z,47.12
2022-12-02T13:10:45.613Z,47.16
2022-12-02T13:13:34.252Z,46.73
2022-12-02T13:16:22.875Z,47.36
2022-12-02T13:19:11.620Z,46.87
2022-12-02T13:22:00.275Z,47.10
2022-12-02T13:24:48.892Z,46.61
2022-12-02T13:27:38.984Z,46.88
2022-12-02T13:30:28.203Z,46.89
2022-12-02T13:33:16.882Z,46.72
2022-12-02T13:36:05.981Z,47.11
2022-12-02T13:38:54.648Z,46.90
2022-12-02T13:41:43.354Z,47.10
2022-12-02T13:44:33.457Z,46.98
2022-12-02T13:47:22.185Z,47.24
2022-12-02T13:50:11.360Z,47.00
2022-12-02T13:53:01.343Z,47.03
2022-12-02T13:55:49.980Z,47.03
2022-12-02T13:58:38.804Z,47.04
2022-12-02T14:01:28.849Z,46.92
2022-12-02T14:04:17.758Z,46.94
2022-12-02T14:07:06.540Z,47.11
2022-12-02T14:09:55.272Z,47.25
2022-12-02T14:12:44.002Z,47.17
2022-12-02T14:15:32.844Z,41.42
2022-12-02T14:18:22.936Z,35.27
2022-12-02T14:21:11.609Z,34.83
2022-12-02T14:24:00.296Z,37.03
2022-12-02T14:26:48.901Z,38.07
2022-12-02T14:29:37.636Z,38.34
2022-12-02T14:32:26.309Z,38.28
2022-12-02T14:35:16.668Z,38.61
2022-12-02T14:38:05.418Z,39.34
2022-12-02T14:40:54.075Z,39.90
2022-12-02T14:43:42.753Z,40.27
2022-12-02T14:46:32.631Z,40.45
2022-12-02T14:49:38.990Z,40.17
2022-12-02T14:52:30.615Z,40.54
2022-12-02T14:55:19.384Z,40.62
2022-12-02T14:58:08.035Z,40.70
2022-12-02T15:00:57.060Z,40.54
2022-12-02T15:03:45.650Z,41.56
2022-12-02T15:06:36.906Z,41.88
2022-12-02T15:09:27.188Z,42.20
2022-12-02T15:12:15.996Z,42.61
2022-12-02T15:15:36.964Z,43.01
2022-12-02T15:18:13.576Z,43.36
2022-12-02T15:21:02.195Z,42.89
2022-12-02T15:23:51.293Z,42.93
2022-12-02T15:26:41.446Z,43.24
2022-12-02T15:29:33.157Z,43.44
2022-12-02T15:32:21.842Z,43.89
2022-12-02T15:35:11.526Z,43.73
2022-12-02T15:38:00.306Z,44.08
2022-12-02T15:40:48.949Z,44.33
2022-12-02T15:43:41.788Z,44.46
2022-12-02T15:46:30.714Z,44.04
2022-12-02T15:49:19.558Z,44.05
2022-12-02T15:52:08.234Z,44.19
2022-12-02T15:54:56.963Z,44.18
2022-12-02T15:57:45.601Z,44.12
2022-12-02T16:00:35.713Z,44.44
2022-12-02T16:03:24.445Z,44.70
2022-12-02T16:06:13.095Z,44.56
2022-12-02T16:09:01.851Z,44.58
2022-12-02T16:11:50.637Z,44.02
2022-12-02T16:14:39.465Z,44.62
2022-12-02T16:17:31.160Z,44.80
2022-12-02T16:20:19.855Z,45.08
2022-12-02T16:23:08.935Z,44.76
2022-12-02T16:25:57.580Z,45.14
2022-12-02T16:28:46.878Z,44.96
2022-12-02T16:31:35.619Z,44.50
2022-12-02T16:34:25.824Z,44.67
2022-12-02T16:37:17.032Z,44.32
2022-12-02T16:40:06.662Z,44.78
2022-12-02T16:42:55.299Z,44.82
2022-12-02T16:45:43.959Z,44.98
2022-12-02T16:48:32.671Z,45.25
2022-12-02T16:51:22.651Z,44.86
2022-12-02T16:54:11.299Z,44.92
2022-12-02T16:57:00.129Z,45.32
2022-12-02T16:59:48.812Z,44.93
2022-12-02T17:02:37.627Z,45.11
2022-12-02T17:05:26.477Z,45.22
2022-12-02T17:08:16.580Z,45.47
2022-12-02T17:11:05.334Z,45.30
2022-12-02T17:13:53.971Z,45.22
2022-12-02T17:16:43.058Z,45.43
2022-12-02T17:19:31.915Z,45.31
2022-12-02T17:22:20.687Z,44.92
2022-12-02T17:25:12.813Z,45.44
2022-12-02T17:28:01.757Z,45.41
2022-12-02T17:30:53.114Z,45.22
2022-12-02T17:33:41.751Z,45.46
2022-12-02T17:36:30.632Z,45.20
2022-12-02T17:39:22.294Z,44.92
2022-12-02T17:42:14.814Z,45.00
2022-12-02T17:45:03.583Z,44.91
2022-12-02T17:47:52.326Z,44.78
2022-12-02T17:50:40.920Z,44.61
2022-12-02T17:53:29.655Z,45.07
2022-12-02T17:56:18.397Z,44.58
2022-12-02T17:59:08.445Z,44.64
2022-12-02T18:01:57.260Z,44.47
2022-12-02T18:04:46.130Z,44.00
2022-12-02T18:07:34.817Z,43.15
2022-12-02T18:10:23.495Z,43.71
2022-12-02T18:13:12.047Z,44.00
2022-12-02T18:16:02.032Z,44.15
2022-12-02T18:18:50.654Z,44.29
2022-12-02T18:21:39.253Z,44.40
2022-12-02T18:24:27.936Z,44.01
2022-12-02T18:27:16.600Z,44.15
2022-12-02T18:30:06.356Z,44.39
2022-12-02T18:32:56.367Z,44.04
2022-12-02T18:35:45.079Z,43.75
2022-12-02T18:38:33.754Z,43.70
2022-12-02T18:41:22.409Z,44.05
2022-12-02T18:44:11.062Z,44.53
2022-12-02T18:47:00.263Z,44.40
2022-12-02T18:49:50.298Z,43.99
2022-12-02T18:52:39.017Z,44.10
2022-12-02T18:55:27.715Z,43.77
2022-12-02T18:58:17.820Z,44.17
2022-12-02T19:01:06.671Z,43.97
2022-12-02T19:03:55.641Z,44.31
2022-12-02T19:06:45.709Z,44.53
2022-12-02T19:09:34.580Z,44.99
2022-12-02T19:12:23.203Z,44.75
2022-12-02T19:15:12.257Z,45.18
2022-12-02T19:18:00.944Z,45.23
2022-12-02T19:20:49.879Z,45.30
2022-12-02T19:23:43.824Z,45.45
2022-12-02T19:26:32.470Z,45.35
2022-12-02T19:29:21.142Z,45.30
2022-12-02T19:32:09.984Z,45.57
2022-12-02T19:35:01.317Z,45.40
2022-12-02T19:37:49.956Z,45.66
2022-12-02T19:40:44.586Z,45.18
2022-12-02T19:43:36.108Z,45.41
2022-12-02T19:46:24.979Z,45.96
2022-12-02T19:49:13.552Z,45.83
2022-12-02T19:52:02.150Z,45.81
2022-12-02T19:54:51.769Z,45.87
2022-12-02T19:57:42.377Z,45.91
2022-12-02T20:00:30.946Z,45.60
2022-12-02T20:03:19.693Z,45.93
2022-12-02T20:06:09.177Z,46.13
2022-12-02T20:08:57.875Z,45.94
2022-12-02T20:11:46.633Z,46.06
2022-12-02T20:14:36.649Z,46.43
2022-12-02T20:17:25.290Z,46.08
2022-12-02T20:20:15.249Z,46.05
2022-12-02T20:23:03.903Z,46.65
2022-12-02T20:25:52.435Z,46.61
2022-12-02T20:28:41.153Z,46.80
2022-12-02T20:31:31.092Z,46.87
2022-12-02T20:34:19.732Z,46.39
2022-12-02T20:37:08.572Z,46.51
2022-12-02T20:39:57.206Z,46.85
2022-12-02T20:42:45.777Z,46.54
2022-12-02T20:45:34.829Z,46.73
2022-12-02T20:48:24.887Z,46.96
2022-12-02T20:51:13.552Z,46.62
2022-12-02T20:56:50.777Z,46.66
2022-12-02T20:59:39.468Z,47.08
2022-12-02T21:02:28.114Z,47.03
2022-12-02T21:05:18.152Z,47.14
2022-12-02T21:08:07.140Z,47.33
2022-12-02T21:10:55.766Z,46.94
2022-12-02T21:13:45.568Z,46.93
2022-12-02T21:16:34.312Z,47.28
2022-12-02T21:19:23.049Z,47.25
2022-12-02T21:22:12.984Z,46.53
2022-12-02T21:25:01.618Z,47.15
2022-12-02T21:27:50.347Z,46.75
2022-12-02T21:30:38.981Z,46.80
2022-12-02T21:33:27.562Z,47.12
2022-12-02T21:36:16.144Z,47.13
2022-12-02T21:39:06.286Z,46.78
2022-12-02T21:41:55.023Z,46.64
2022-12-02T21:44:43.630Z,46.97
2022-12-02T21:47:32.268Z,47.11
2022-12-02T21:50:20.870Z,47.04
2022-12-02T21:53:09.514Z,47.23
2022-12-02T21:55:59.595Z,47.05
2022-12-02T21:58:48.252Z,46.98
2022-12-02T22:01:41.064Z,46.92
2022-12-02T22:04:31.101Z,47.12
2022-12-02T22:07:37.352Z,46.64
2022-12-02T22:10:28.033Z,46.92
2022-12-02T22:13:18.117Z,46.94
2022-12-02T22:16:07.229Z,46.91
2022-12-02T22:18:56.161Z,47.01
2022-12-02T22:21:44.817Z,46.82
2022-12-02T22:24:33.354Z,46.98
2022-12-02T22:27:22.010Z,47.07
2022-12-02T22:30:16.910Z,46.85
2022-12-02T22:33:05.862Z,47.23
2022-12-02T22:35:54.558Z,47.23
2022-12-02T22:38:43.273Z,47.37
2022-12-02T22:41:31.847Z,47.35
2022-12-02T22:44:20.507Z,47.24
2022-12-02T22:47:10.574Z,47.51
2022-12-02T22:49:59.244Z,47.34
2022-12-02T22:52:47.868Z,47.37
2022-12-02T22:55:36.904Z,47.38
2022-12-02T22:58:25.600Z,47.90
2022-12-02T23:01:14.231Z,47.83
2022-12-02T23:04:04.342Z,47.96
2022-12-02T23:06:53.855Z,47.92
2022-12-02T23:09:42.512Z,47.89
2022-12-02T23:12:31.117Z,48.23
2022-12-02T23:15:37.893Z,47.95
2022-12-02T23:18:27.004Z,47.95
2022-12-02T23:21:17.012Z,47.98
2022-12-02T23:24:06.136Z,48.06
2022-12-02T23:26:54.759Z,48.26
2022-12-02T23:29:43.353Z,47.77
2022-12-02T23:32:31.943Z,47.92
2022-12-02T23:35:20.619Z,48.22
2022-12-02T23:38:10.550Z,48.43
2022-12-02T23:40:59.206Z,48.04
2022-12-02T23:43:47.907Z,48.29
2022-12-02T23:46:36.606Z,48.25
2022-12-02T23:49:25.335Z,48.18
2022-12-02T23:52:13.939Z,48.36
2022-12-02T23:55:04.098Z,48.33
2022-12-02T23:57:52.816Z,48.16
